sensor_id;sensor_type;location;lat;lon;timestamp;temperature;humidity
53053;DHT22;38934;52.690;6.184;2022-08-21T00:01:57;15.80;99.90
53053;DHT22;38934;52.690;6.184;2022-08-21T00:04:23;15.70;99.90
53053;DHT22;38934;52.690;6.184;2022-08-21T00:06:52;15.70;99.90
53053;DHT22;38934;52.690;6.184;2022-08-21T00:09:19;15.70;99.90
53053;DHT22;38934;52.690;6.184;2022-08-21T00:11:46;15.70;99.90
53053;DHT22;38934;52.690;6.184;2022-08-21T00:14:13;15.60;99.90
53053;DHT22;38934;52.690;6.184;2022-08-21T00:16:39;15.60;99.90
53053;DHT22;38934;52.690;6.184;2022-08-21T00:19:06;15.60;99.90
53053;DHT22;38934;52.690;6.184;2022-08-21T00:21:32;15.60;99.90
53053;DHT22;38934;52.690;6.184;2022-08-21T00:23:59;15.60;99.90
53053;DHT22;38934;52.690;6.184;2022-08-21T00:26:25;15.50;99.90
53053;DHT22;38934;52.690;6.184;2022-08-21T00:28:51;15.50;99.90
53053;DHT22;38934;52.690;6.184;2022-08-21T00:31:17;15.50;99.90
53053;DHT22;38934;52.690;6.184;2022-08-21T00:33:43;15.40;99.90
53053;DHT22;38934;52.690;6.184;2022-08-21T00:36:09;15.40;99.90
53053;DHT22;38934;52.690;6.184;2022-08-21T00:38:36;15.40;99.90
53053;DHT22;38934;52.690;6.184;2022-08-21T00:41:03;15.60;99.90
53053;DHT22;38934;52.690;6.184;2022-08-21T00:43:32;15.50;99.90
53053;DHT22;38934;52.690;6.184;2022-08-21T00:45:59;15.40;99.90
53053;DHT22;38934;52.690;6.184;2022-08-21T00:48:25;15.40;99.90
53053;DHT22;38934;52.690;6.184;2022-08-21T00:50:58;15.40;99.90
53053;DHT22;38934;52.690;6.184;2022-08-21T00:53:25;15.30;99.90
53053;DHT22;38934;52.690;6.184;2022-08-21T00:55:52;15.30;99.90
53053;DHT22;38934;52.690;6.184;2022-08-21T00:58:18;15.30;99.90
53053;DHT22;38934;52.690;6.184;2022-08-21T01:00:47;15.30;99.90
53053;DHT22;38934;52.690;6.184;2022-08-21T01:03:17;15.30;99.90
53053;DHT22;38934;52.690;6.184;2022-08-21T01:05:44;15.30;99.90
53053;DHT22;38934;52.690;6.184;2022-08-21T01:08:11;15.20;99.90
53053;DHT22;38934;52.690;6.184;2022-08-21T01:10:37;15.20;99.90
53053;DHT22;38934;52.690;6.184;2022-08-21T01:13:05;15.20;99.90
53053;DHT22;38934;52.690;6.184;2022-08-21T01:15:36;15.20;99.90
53053;DHT22;38934;52.690;6.184;2022-08-21T01:18:05;15.20;99.90
53053;DHT22;38934;52.690;6.184;2022-08-21T01:20:31;15.20;99.90
53053;DHT22;38934;52.690;6.184;2022-08-21T01:22:57;15.10;99.90
53053;DHT22;38934;52.690;6.184;2022-08-21T01:25:23;15.10;99.90
53053;DHT22;38934;52.690;6.184;2022-08-21T01:27:48;15.10;99.90
53053;DHT22;38934;52.690;6.184;2022-08-21T01:30:18;15.10;99.90
53053;DHT22;38934;52.690;6.184;2022-08-21T01:32:45;15.10;99.90
53053;DHT22;38934;52.690;6.184;2022-08-21T01:35:12;15.10;99.90
53053;DHT22;38934;52.690;6.184;2022-08-21T01:37:39;15.00;99.90
53053;DHT22;38934;52.690;6.184;2022-08-21T01:40:06;15.00;99.90
53053;DHT22;38934;52.690;6.184;2022-08-21T01:42:33;15.00;99.90
53053;DHT22;38934;52.690;6.184;2022-08-21T01:44:59;15.00;99.90
53053;DHT22;38934;52.690;6.184;2022-08-21T01:47:24;14.90;99.90
53053;DHT22;38934;52.690;6.184;2022-08-21T01:49:50;14.90;99.90
53053;DHT22;38934;52.690;6.184;2022-08-21T01:52:15;14.90;99.90
53053;DHT22;38934;52.690;6.184;2022-08-21T01:54:42;14.90;99.90
53053;DHT22;38934;52.690;6.184;2022-08-21T01:57:08;14.90;99.90
53053;DHT22;38934;52.690;6.184;2022-08-21T01:59:34;14.80;99.90
53053;DHT22;38934;52.690;6.184;2022-08-21T02:02:00;14.80;99.90
53053;DHT22;38934;52.690;6.184;2022-08-21T02:04:26;14.80;99.90
53053;DHT22;38934;52.690;6.184;2022-08-21T02:06:52;14.80;99.90
53053;DHT22;38934;52.690;6.184;2022-08-21T02:09:18;14.80;99.90
53053;DHT22;38934;52.690;6.184;2022-08-21T02:11:43;15.10;99.90
53053;DHT22;38934;52.690;6.184;2022-08-21T02:14:11;14.70;99.90
53053;DHT22;38934;52.690;6.184;2022-08-21T02:16:38;14.70;99.90
53053;DHT22;38934;52.690;6.184;2022-08-21T02:19:05;14.70;99.90
53053;DHT22;38934;52.690;6.184;2022-08-21T02:21:30;14.90;99.90
53053;DHT22;38934;52.690;6.184;2022-08-21T02:23:56;14.70;99.90
53053;DHT22;38934;52.690;6.184;2022-08-21T02:26:22;14.60;99.90
53053;DHT22;38934;52.690;6.184;2022-08-21T02:28:48;14.60;99.90
53053;DHT22;38934;52.690;6.184;2022-08-21T02:31:14;14.60;99.90
53053;DHT22;38934;52.690;6.184;2022-08-21T02:33:39;14.50;99.90
53053;DHT22;38934;52.690;6.184;2022-08-21T02:36:07;14.50;99.90
53053;DHT22;38934;52.690;6.184;2022-08-21T02:38:34;14.50;99.90
53053;DHT22;38934;52.690;6.184;2022-08-21T02:41:05;14.60;99.90
53053;DHT22;38934;52.690;6.184;2022-08-21T02:43:33;14.50;99.90
53053;DHT22;38934;52.690;6.184;2022-08-21T02:45:59;14.40;99.90
53053;DHT22;38934;52.690;6.184;2022-08-21T02:48:27;14.40;99.90
53053;DHT22;38934;52.690;6.184;2022-08-21T02:50:58;14.40;99.90
53053;DHT22;38934;52.690;6.184;2022-08-21T02:53:25;14.40;99.90
53053;DHT22;38934;52.690;6.184;2022-08-21T02:55:52;14.40;99.90
53053;DHT22;38934;52.690;6.184;2022-08-21T02:58:22;14.40;99.90
53053;DHT22;38934;52.690;6.184;2022-08-21T03:00:47;14.30;99.90
53053;DHT22;38934;52.690;6.184;2022-08-21T03:03:13;14.30;99.90
53053;DHT22;38934;52.690;6.184;2022-08-21T03:05:40;14.20;99.90
53053;DHT22;38934;52.690;6.184;2022-08-21T03:08:08;14.20;99.90
53053;DHT22;38934;52.690;6.184;2022-08-21T03:10:35;14.20;99.90
53053;DHT22;38934;52.690;6.184;2022-08-21T03:13:01;13.90;99.90
53053;DHT22;38934;52.690;6.184;2022-08-21T03:15:29;14.10;99.90
53053;DHT22;38934;52.690;6.184;2022-08-21T03:17:54;14.10;99.90
53053;DHT22;38934;52.690;6.184;2022-08-21T03:20:23;14.10;99.90
53053;DHT22;38934;52.690;6.184;2022-08-21T03:22:50;14.00;99.90
53053;DHT22;38934;52.690;6.184;2022-08-21T03:25:16;14.00;99.90
53053;DHT22;38934;52.690;6.184;2022-08-21T03:27:43;14.10;99.90
53053;DHT22;38934;52.690;6.184;2022-08-21T03:30:09;14.10;99.90
53053;DHT22;38934;52.690;6.184;2022-08-21T03:32:35;14.00;99.90
53053;DHT22;38934;52.690;6.184;2022-08-21T03:35:02;14.00;99.90
53053;DHT22;38934;52.690;6.184;2022-08-21T03:37:28;14.10;99.90
53053;DHT22;38934;52.690;6.184;2022-08-21T03:39:54;14.00;99.90
53053;DHT22;38934;52.690;6.184;2022-08-21T03:42:20;14.00;99.90
53053;DHT22;38934;52.690;6.184;2022-08-21T03:44:45;14.00;99.90
53053;DHT22;38934;52.690;6.184;2022-08-21T03:47:11;14.00;99.90
53053;DHT22;38934;52.690;6.184;2022-08-21T03:49:37;14.10;99.90
53053;DHT22;38934;52.690;6.184;2022-08-21T03:52:03;14.00;99.90
53053;DHT22;38934;52.690;6.184;2022-08-21T03:54:29;14.00;99.90
53053;DHT22;38934;52.690;6.184;2022-08-21T03:56:55;14.00;99.90
53053;DHT22;38934;52.690;6.184;2022-08-21T03:59:21;14.00;99.90
53053;DHT22;38934;52.690;6.184;2022-08-21T04:01:56;14.00;99.90
53053;DHT22;38934;52.690;6.184;2022-08-21T04:04:22;13.90;99.90
53053;DHT22;38934;52.690;6.184;2022-08-21T04:06:48;13.90;99.90
53053;DHT22;38934;52.690;6.184;2022-08-21T04:09:15;13.90;99.90
53053;DHT22;38934;52.690;6.184;2022-08-21T04:11:41;13.90;99.90
53053;DHT22;38934;52.690;6.184;2022-08-21T04:14:07;13.90;99.90
53053;DHT22;38934;52.690;6.184;2022-08-21T04:16:32;13.90;99.90
53053;DHT22;38934;52.690;6.184;2022-08-21T04:18:58;13.90;99.90
53053;DHT22;38934;52.690;6.184;2022-08-21T04:21:23;13.90;99.90
53053;DHT22;38934;52.690;6.184;2022-08-21T04:23:49;13.90;99.90
53053;DHT22;38934;52.690;6.184;2022-08-21T04:26:15;13.90;99.90
53053;DHT22;38934;52.690;6.184;2022-08-21T04:28:41;13.90;99.90
53053;DHT22;38934;52.690;6.184;2022-08-21T04:31:08;13.90;99.90
53053;DHT22;38934;52.690;6.184;2022-08-21T04:33:34;13.90;99.90
53053;DHT22;38934;52.690;6.184;2022-08-21T04:35:59;14.00;99.90
53053;DHT22;38934;52.690;6.184;2022-08-21T04:38:25;14.10;99.90
53053;DHT22;38934;52.690;6.184;2022-08-21T04:40:51;14.00;99.90
53053;DHT22;38934;52.690;6.184;2022-08-21T04:43:18;14.00;99.90
53053;DHT22;38934;52.690;6.184;2022-08-21T04:45:47;14.00;99.90
53053;DHT22;38934;52.690;6.184;2022-08-21T04:48:15;14.00;99.90
53053;DHT22;38934;52.690;6.184;2022-08-21T04:50:49;14.00;99.90
53053;DHT22;38934;52.690;6.184;2022-08-21T04:56:31;14.10;99.90
53053;DHT22;38934;52.690;6.184;2022-08-21T04:58:59;14.10;99.90
53053;DHT22;38934;52.690;6.184;2022-08-21T05:01:29;14.10;99.90
53053;DHT22;38934;52.690;6.184;2022-08-21T05:03:58;14.10;99.90
53053;DHT22;38934;52.690;6.184;2022-08-21T05:06:24;14.20;99.90
53053;DHT22;38934;52.690;6.184;2022-08-21T05:08:53;14.10;99.90
53053;DHT22;38934;52.690;6.184;2022-08-21T05:11:20;14.20;99.90
53053;DHT22;38934;52.690;6.184;2022-08-21T05:13:46;14.30;99.90
53053;DHT22;38934;52.690;6.184;2022-08-21T05:16:12;14.20;99.90
53053;DHT22;38934;52.690;6.184;2022-08-21T05:18:37;14.20;99.90
53053;DHT22;38934;52.690;6.184;2022-08-21T05:21:04;14.30;99.90
53053;DHT22;38934;52.690;6.184;2022-08-21T05:23:30;14.40;99.90
53053;DHT22;38934;52.690;6.184;2022-08-21T05:25:56;14.40;99.90
53053;DHT22;38934;52.690;6.184;2022-08-21T05:28:21;14.40;99.90
53053;DHT22;38934;52.690;6.184;2022-08-21T05:30:47;14.40;99.90
53053;DHT22;38934;52.690;6.184;2022-08-21T05:33:13;14.40;99.90
53053;DHT22;38934;52.690;6.184;2022-08-21T05:35:39;14.70;99.90
53053;DHT22;38934;52.690;6.184;2022-08-21T05:38:05;14.50;99.90
53053;DHT22;38934;52.690;6.184;2022-08-21T05:40:32;14.60;99.90
53053;DHT22;38934;52.690;6.184;2022-08-21T05:42:58;14.60;99.90
53053;DHT22;38934;52.690;6.184;2022-08-21T05:45:30;14.70;99.90
53053;DHT22;38934;52.690;6.184;2022-08-21T05:47:56;14.70;99.90
53053;DHT22;38934;52.690;6.184;2022-08-21T05:50:21;14.80;99.90
53053;DHT22;38934;52.690;6.184;2022-08-21T05:52:47;14.80;99.90
53053;DHT22;38934;52.690;6.184;2022-08-21T05:55:13;14.80;99.90
53053;DHT22;38934;52.690;6.184;2022-08-21T05:57:38;14.90;99.90
53053;DHT22;38934;52.690;6.184;2022-08-21T06:00:07;14.90;99.90
53053;DHT22;38934;52.690;6.184;2022-08-21T06:02:34;14.90;99.90
53053;DHT22;38934;52.690;6.184;2022-08-21T06:04:59;15.00;99.90
53053;DHT22;38934;52.690;6.184;2022-08-21T06:07:25;15.00;99.90
53053;DHT22;38934;52.690;6.184;2022-08-21T06:09:50;15.00;99.90
53053;DHT22;38934;52.690;6.184;2022-08-21T06:12:17;15.00;99.90
53053;DHT22;38934;52.690;6.184;2022-08-21T06:14:42;15.10;99.90
53053;DHT22;38934;52.690;6.184;2022-08-21T06:17:10;15.10;99.90
53053;DHT22;38934;52.690;6.184;2022-08-21T06:19:37;15.20;99.90
53053;DHT22;38934;52.690;6.184;2022-08-21T06:22:03;15.20;99.90
53053;DHT22;38934;52.690;6.184;2022-08-21T06:24:29;15.30;99.90
53053;DHT22;38934;52.690;6.184;2022-08-21T06:26:56;15.30;99.90
53053;DHT22;38934;52.690;6.184;2022-08-21T06:29:22;15.50;99.90
53053;DHT22;38934;52.690;6.184;2022-08-21T06:31:49;15.70;99.90
53053;DHT22;38934;52.690;6.184;2022-08-21T06:34:16;15.60;99.90
53053;DHT22;38934;52.690;6.184;2022-08-21T06:36:42;15.60;99.90
53053;DHT22;38934;52.690;6.184;2022-08-21T06:39:07;15.70;99.90
53053;DHT22;38934;52.690;6.184;2022-08-21T06:41:33;15.90;99.90
53053;DHT22;38934;52.690;6.184;2022-08-21T06:43:59;15.90;99.90
53053;DHT22;38934;52.690;6.184;2022-08-21T06:46:27;16.00;99.90
53053;DHT22;38934;52.690;6.184;2022-08-21T06:48:53;16.30;99.90
53053;DHT22;38934;52.690;6.184;2022-08-21T06:51:19;16.10;99.90
53053;DHT22;38934;52.690;6.184;2022-08-21T06:53:45;16.20;99.90
53053;DHT22;38934;52.690;6.184;2022-08-21T06:56:11;16.60;99.90
53053;DHT22;38934;52.690;6.184;2022-08-21T06:58:36;16.40;99.90
53053;DHT22;38934;52.690;6.184;2022-08-21T07:01:02;16.50;99.90
53053;DHT22;38934;52.690;6.184;2022-08-21T07:03:31;16.50;99.90
53053;DHT22;38934;52.690;6.184;2022-08-21T07:05:57;16.60;99.90
53053;DHT22;38934;52.690;6.184;2022-08-21T07:08:24;16.70;99.90
53053;DHT22;38934;52.690;6.184;2022-08-21T07:10:51;16.80;99.90
53053;DHT22;38934;52.690;6.184;2022-08-21T07:13:17;16.90;99.90
53053;DHT22;38934;52.690;6.184;2022-08-21T07:15:43;17.00;99.90
53053;DHT22;38934;52.690;6.184;2022-08-21T07:18:10;17.00;99.90
53053;DHT22;38934;52.690;6.184;2022-08-21T07:20:36;17.20;99.90
53053;DHT22;38934;52.690;6.184;2022-08-21T07:23:05;17.30;99.90
53053;DHT22;38934;52.690;6.184;2022-08-21T07:25:31;17.30;99.90
53053;DHT22;38934;52.690;6.184;2022-08-21T07:27:57;17.40;99.90
53053;DHT22;38934;52.690;6.184;2022-08-21T07:30:23;17.50;99.90
53053;DHT22;38934;52.690;6.184;2022-08-21T07:32:49;17.90;99.90
53053;DHT22;38934;52.690;6.184;2022-08-21T07:35:16;17.70;99.90
53053;DHT22;38934;52.690;6.184;2022-08-21T07:37:41;17.90;99.90
53053;DHT22;38934;52.690;6.184;2022-08-21T07:40:07;17.80;99.90
53053;DHT22;38934;52.690;6.184;2022-08-21T07:42:33;17.90;99.90
53053;DHT22;38934;52.690;6.184;2022-08-21T07:44:59;18.00;99.90
53053;DHT22;38934;52.690;6.184;2022-08-21T07:47:25;18.10;99.90
53053;DHT22;38934;52.690;6.184;2022-08-21T07:49:50;18.20;99.90
53053;DHT22;38934;52.690;6.184;2022-08-21T07:52:16;18.30;99.90
53053;DHT22;38934;52.690;6.184;2022-08-21T07:54:42;18.30;99.90
53053;DHT22;38934;52.690;6.184;2022-08-21T07:57:07;18.30;99.90
53053;DHT22;38934;52.690;6.184;2022-08-21T07:59:33;18.40;99.90
53053;DHT22;38934;52.690;6.184;2022-08-21T08:01:58;18.50;99.90
53053;DHT22;38934;52.690;6.184;2022-08-21T08:04:24;18.50;99.90
53053;DHT22;38934;52.690;6.184;2022-08-21T08:06:50;18.50;99.90
53053;DHT22;38934;52.690;6.184;2022-08-21T08:09:15;18.60;99.90
53053;DHT22;38934;52.690;6.184;2022-08-21T08:11:42;18.70;99.90
53053;DHT22;38934;52.690;6.184;2022-08-21T08:14:11;18.80;99.90
53053;DHT22;38934;52.690;6.184;2022-08-21T08:16:37;18.80;99.90
53053;DHT22;38934;52.690;6.184;2022-08-21T08:19:03;19.00;99.90
53053;DHT22;38934;52.690;6.184;2022-08-21T08:21:29;19.10;99.90
53053;DHT22;38934;52.690;6.184;2022-08-21T08:23:54;19.10;99.90
53053;DHT22;38934;52.690;6.184;2022-08-21T08:26:20;19.20;99.90
53053;DHT22;38934;52.690;6.184;2022-08-21T08:28:46;19.30;99.90
53053;DHT22;38934;52.690;6.184;2022-08-21T08:31:13;19.30;99.90
53053;DHT22;38934;52.690;6.184;2022-08-21T08:33:39;19.40;99.90
53053;DHT22;38934;52.690;6.184;2022-08-21T08:36:05;19.40;99.90
53053;DHT22;38934;52.690;6.184;2022-08-21T08:38:30;19.50;99.90
53053;DHT22;38934;52.690;6.184;2022-08-21T08:41:14;19.60;99.90
53053;DHT22;38934;52.690;6.184;2022-08-21T08:43:50;19.60;99.90
53053;DHT22;38934;52.690;6.184;2022-08-21T08:46:31;19.70;99.90
53053;DHT22;38934;52.690;6.184;2022-08-21T08:49:02;19.70;99.90
53053;DHT22;38934;52.690;6.184;2022-08-21T08:54:03;19.90;99.90
53053;DHT22;38934;52.690;6.184;2022-08-21T08:56:33;20.00;99.90
53053;DHT22;38934;52.690;6.184;2022-08-21T08:59:05;20.00;99.90
53053;DHT22;38934;52.690;6.184;2022-08-21T09:01:33;20.00;99.90
53053;DHT22;38934;52.690;6.184;2022-08-21T09:03:58;20.10;99.90
53053;DHT22;38934;52.690;6.184;2022-08-21T09:08:59;20.50;99.90
53053;DHT22;38934;52.690;6.184;2022-08-21T09:11:37;20.80;99.90
53053;DHT22;38934;52.690;6.184;2022-08-21T09:14:27;21.10;99.90
53053;DHT22;38934;52.690;6.184;2022-08-21T09:20:16;21.40;99.90
53053;DHT22;38934;52.690;6.184;2022-08-21T09:23:13;21.50;99.90
53053;DHT22;38934;52.690;6.184;2022-08-21T09:26:07;21.70;99.90
53053;DHT22;38934;52.690;6.184;2022-08-21T09:28:37;21.80;99.90
53053;DHT22;38934;52.690;6.184;2022-08-21T09:31:08;21.90;99.90
53053;DHT22;38934;52.690;6.184;2022-08-21T09:33:33;21.70;99.90
53053;DHT22;38934;52.690;6.184;2022-08-21T09:35:59;21.90;99.90
53053;DHT22;38934;52.690;6.184;2022-08-21T09:38:31;22.00;99.90
53053;DHT22;38934;52.690;6.184;2022-08-21T09:41:06;22.10;99.90
53053;DHT22;38934;52.690;6.184;2022-08-21T09:43:33;22.40;99.90
53053;DHT22;38934;52.690;6.184;2022-08-21T09:46:08;22.60;99.90
53053;DHT22;38934;52.690;6.184;2022-08-21T09:48:47;22.80;99.90
53053;DHT22;38934;52.690;6.184;2022-08-21T09:51:17;22.80;99.90
53053;DHT22;38934;52.690;6.184;2022-08-21T09:53:47;22.70;99.90
53053;DHT22;38934;52.690;6.184;2022-08-21T09:56:21;22.60;99.90
53053;DHT22;38934;52.690;6.184;2022-08-21T09:59:14;22.40;99.90
53053;DHT22;38934;52.690;6.184;2022-08-21T10:01:47;22.20;99.90
53053;DHT22;38934;52.690;6.184;2022-08-21T10:04:13;22.10;99.90
53053;DHT22;38934;52.690;6.184;2022-08-21T10:06:39;22.20;99.90
53053;DHT22;38934;52.690;6.184;2022-08-21T10:09:15;22.30;99.90
53053;DHT22;38934;52.690;6.184;2022-08-21T10:11:47;22.40;99.90
53053;DHT22;38934;52.690;6.184;2022-08-21T10:14:23;22.40;99.90
53053;DHT22;38934;52.690;6.184;2022-08-21T10:17:04;22.50;99.90
53053;DHT22;38934;52.690;6.184;2022-08-21T10:25:25;22.70;99.90
53053;DHT22;38934;52.690;6.184;2022-08-21T10:28:40;22.80;99.90
53053;DHT22;38934;52.690;6.184;2022-08-21T10:31:10;23.20;99.90
53053;DHT22;38934;52.690;6.184;2022-08-21T10:36:46;23.30;99.90
53053;DHT22;38934;52.690;6.184;2022-08-21T10:39:31;23.50;99.90
53053;DHT22;38934;52.690;6.184;2022-08-21T10:47:48;24.30;99.90
53053;DHT22;38934;52.690;6.184;2022-08-21T10:55:43;24.50;99.90
53053;DHT22;38934;52.690;6.184;2022-08-21T10:58:19;24.30;99.90
53053;DHT22;38934;52.690;6.184;2022-08-21T11:00:49;24.20;99.90
53053;DHT22;38934;52.690;6.184;2022-08-21T11:06:11;24.20;99.90
53053;DHT22;38934;52.690;6.184;2022-08-21T11:08:41;24.40;99.90
53053;DHT22;38934;52.690;6.184;2022-08-21T11:11:15;24.60;99.90
53053;DHT22;38934;52.690;6.184;2022-08-21T11:13:49;24.80;99.90
53053;DHT22;38934;52.690;6.184;2022-08-21T11:16:42;25.20;99.90
53053;DHT22;38934;52.690;6.184;2022-08-21T11:19:17;25.40;99.90
53053;DHT22;38934;52.690;6.184;2022-08-21T11:24:22;25.90;99.90
53053;DHT22;38934;52.690;6.184;2022-08-21T11:29:38;26.20;99.90
53053;DHT22;38934;52.690;6.184;2022-08-21T11:35:36;26.30;99.90
53053;DHT22;38934;52.690;6.184;2022-08-21T11:38:17;26.20;99.90
53053;DHT22;38934;52.690;6.184;2022-08-21T11:41:30;26.20;99.90
53053;DHT22;38934;52.690;6.184;2022-08-21T11:44:26;26.20;99.90
53053;DHT22;38934;52.690;6.184;2022-08-21T11:47:00;26.20;99.90
53053;DHT22;38934;52.690;6.184;2022-08-21T11:49:42;26.20;99.90
53053;DHT22;38934;52.690;6.184;2022-08-21T11:52:21;26.20;99.90
53053;DHT22;38934;52.690;6.184;2022-08-21T11:55:00;26.00;99.90
53053;DHT22;38934;52.690;6.184;2022-08-21T11:57:35;25.80;99.90
53053;DHT22;38934;52.690;6.184;2022-08-21T12:00:29;25.90;99.90
53053;DHT22;38934;52.690;6.184;2022-08-21T12:03:05;25.90;99.90
53053;DHT22;38934;52.690;6.184;2022-08-21T12:05:34;25.90;99.90
53053;DHT22;38934;52.690;6.184;2022-08-21T12:08:14;26.00;99.90
53053;DHT22;38934;52.690;6.184;2022-08-21T12:10:47;26.20;99.90
53053;DHT22;38934;52.690;6.184;2022-08-21T12:13:27;26.30;99.90
53053;DHT22;38934;52.690;6.184;2022-08-21T12:16:04;26.50;99.90
53053;DHT22;38934;52.690;6.184;2022-08-21T12:18:31;26.50;99.90
53053;DHT22;38934;52.690;6.184;2022-08-21T12:21:20;26.50;99.90
53053;DHT22;38934;52.690;6.184;2022-08-21T12:24:02;26.50;99.90
53053;DHT22;38934;52.690;6.184;2022-08-21T12:26:56;26.30;99.90
53053;DHT22;38934;52.690;6.184;2022-08-21T12:32:04;26.00;99.90
53053;DHT22;38934;52.690;6.184;2022-08-21T12:35:00;25.80;99.90
53053;DHT22;38934;52.690;6.184;2022-08-21T12:40:10;25.60;99.90
53053;DHT22;38934;52.690;6.184;2022-08-21T12:42:39;25.60;99.90
53053;DHT22;38934;52.690;6.184;2022-08-21T12:45:28;25.70;99.90
53053;DHT22;38934;52.690;6.184;2022-08-21T12:48:12;25.60;99.90
53053;DHT22;38934;52.690;6.184;2022-08-21T12:50:50;25.50;99.90
53053;DHT22;38934;52.690;6.184;2022-08-21T12:53:32;25.30;99.90
53053;DHT22;38934;52.690;6.184;2022-08-21T12:56:02;25.20;99.90
53053;DHT22;38934;52.690;6.184;2022-08-21T12:58:29;25.10;99.90
53053;DHT22;38934;52.690;6.184;2022-08-21T13:03:47;25.60;99.90
53053;DHT22;38934;52.690;6.184;2022-08-21T13:06:16;25.90;99.90
53053;DHT22;38934;52.690;6.184;2022-08-21T13:08:43;26.00;99.90
53053;DHT22;38934;52.690;6.184;2022-08-21T13:11:10;26.00;99.90
53053;DHT22;38934;52.690;6.184;2022-08-21T13:13:38;25.80;99.90
53053;DHT22;38934;52.690;6.184;2022-08-21T13:16:06;25.80;99.90
53053;DHT22;38934;52.690;6.184;2022-08-21T13:18:34;26.00;99.90
53053;DHT22;38934;52.690;6.184;2022-08-21T13:21:30;26.10;99.90
53053;DHT22;38934;52.690;6.184;2022-08-21T13:26:39;26.20;99.90
53053;DHT22;38934;52.690;6.184;2022-08-21T13:29:14;26.10;99.90
53053;DHT22;38934;52.690;6.184;2022-08-21T13:31:46;26.00;99.90
53053;DHT22;38934;52.690;6.184;2022-08-21T13:34:12;25.90;99.90
53053;DHT22;38934;52.690;6.184;2022-08-21T13:36:41;25.90;99.90
53053;DHT22;38934;52.690;6.184;2022-08-21T13:39:10;26.00;99.90
53053;DHT22;38934;52.690;6.184;2022-08-21T13:41:39;26.00;99.90
53053;DHT22;38934;52.690;6.184;2022-08-21T13:46:39;25.90;99.90
53053;DHT22;38934;52.690;6.184;2022-08-21T13:49:06;25.80;99.90
53053;DHT22;38934;52.690;6.184;2022-08-21T13:51:33;25.60;99.90
53053;DHT22;38934;52.690;6.184;2022-08-21T13:54:00;25.40;99.90
53053;DHT22;38934;52.690;6.184;2022-08-21T13:56:32;25.20;99.90
53053;DHT22;38934;52.690;6.184;2022-08-21T13:58:58;25.00;99.90
53053;DHT22;38934;52.690;6.184;2022-08-21T14:01:31;25.10;99.90
53053;DHT22;38934;52.690;6.184;2022-08-21T14:04:16;25.20;99.90
53053;DHT22;38934;52.690;6.184;2022-08-21T14:06:44;25.40;99.90
53053;DHT22;38934;52.690;6.184;2022-08-21T14:09:13;25.60;99.90
53053;DHT22;38934;52.690;6.184;2022-08-21T14:11:40;25.70;99.90
53053;DHT22;38934;52.690;6.184;2022-08-21T14:14:33;25.80;99.90
53053;DHT22;38934;52.690;6.184;2022-08-21T14:17:06;25.60;99.80
53053;DHT22;38934;52.690;6.184;2022-08-21T14:19:43;25.50;99.90
53053;DHT22;38934;52.690;6.184;2022-08-21T14:22:43;25.30;99.90
53053;DHT22;38934;52.690;6.184;2022-08-21T14:30:38;24.70;99.90
53053;DHT22;38934;52.690;6.184;2022-08-21T14:33:09;24.60;99.90
53053;DHT22;38934;52.690;6.184;2022-08-21T14:35:35;24.50;99.90
53053;DHT22;38934;52.690;6.184;2022-08-21T14:38:01;24.50;99.90
53053;DHT22;38934;52.690;6.184;2022-08-21T14:40:27;24.40;99.90
53053;DHT22;38934;52.690;6.184;2022-08-21T14:42:53;24.60;99.90
53053;DHT22;38934;52.690;6.184;2022-08-21T14:45:30;24.50;99.90
53053;DHT22;38934;52.690;6.184;2022-08-21T14:47:57;24.50;99.90
53053;DHT22;38934;52.690;6.184;2022-08-21T14:50:24;24.40;99.90
53053;DHT22;38934;52.690;6.184;2022-08-21T14:52:50;24.40;99.90
53053;DHT22;38934;52.690;6.184;2022-08-21T14:55:17;24.40;99.90
53053;DHT22;38934;52.690;6.184;2022-08-21T14:57:46;24.30;99.90
53053;DHT22;38934;52.690;6.184;2022-08-21T15:00:15;24.20;99.90
53053;DHT22;38934;52.690;6.184;2022-08-21T15:02:42;24.30;99.90
53053;DHT22;38934;52.690;6.184;2022-08-21T15:05:09;24.40;99.90
53053;DHT22;38934;52.690;6.184;2022-08-21T15:07:35;24.50;99.90
53053;DHT22;38934;52.690;6.184;2022-08-21T15:10:02;24.50;99.90
53053;DHT22;38934;52.690;6.184;2022-08-21T15:12:28;24.50;99.90
53053;DHT22;38934;52.690;6.184;2022-08-21T15:14:54;24.50;99.90
53053;DHT22;38934;52.690;6.184;2022-08-21T15:17:20;24.50;99.90
53053;DHT22;38934;52.690;6.184;2022-08-21T15:19:45;24.70;99.90
53053;DHT22;38934;52.690;6.184;2022-08-21T15:22:11;24.70;99.90
53053;DHT22;38934;52.690;6.184;2022-08-21T15:24:36;24.80;99.90
53053;DHT22;38934;52.690;6.184;2022-08-21T15:27:03;24.80;99.90
53053;DHT22;38934;52.690;6.184;2022-08-21T15:29:30;24.80;99.90
53053;DHT22;38934;52.690;6.184;2022-08-21T15:31:59;24.90;99.90
53053;DHT22;38934;52.690;6.184;2022-08-21T15:34:27;25.00;99.90
53053;DHT22;38934;52.690;6.184;2022-08-21T15:36:55;25.10;99.90
53053;DHT22;38934;52.690;6.184;2022-08-21T15:39:20;25.30;99.90
53053;DHT22;38934;52.690;6.184;2022-08-21T15:41:47;25.30;99.90
53053;DHT22;38934;52.690;6.184;2022-08-21T15:44:13;25.40;99.90
53053;DHT22;38934;52.690;6.184;2022-08-21T15:46:40;25.30;99.90
53053;DHT22;38934;52.690;6.184;2022-08-21T15:49:06;25.10;99.90
53053;DHT22;38934;52.690;6.184;2022-08-21T15:51:32;24.70;99.90
53053;DHT22;38934;52.690;6.184;2022-08-21T15:53:58;24.70;99.90
53053;DHT22;38934;52.690;6.184;2022-08-21T15:56:26;24.50;99.90
53053;DHT22;38934;52.690;6.184;2022-08-21T15:58:57;24.30;99.90
53053;DHT22;38934;52.690;6.184;2022-08-21T16:01:24;24.10;99.90
53053;DHT22;38934;52.690;6.184;2022-08-21T16:03:52;23.90;99.90
53053;DHT22;38934;52.690;6.184;2022-08-21T16:06:19;23.90;99.90
53053;DHT22;38934;52.690;6.184;2022-08-21T16:08:45;23.70;99.90
53053;DHT22;38934;52.690;6.184;2022-08-21T16:11:13;23.70;99.90
53053;DHT22;38934;52.690;6.184;2022-08-21T16:13:42;23.60;99.90
53053;DHT22;38934;52.690;6.184;2022-08-21T16:16:10;23.50;99.90
53053;DHT22;38934;52.690;6.184;2022-08-21T16:18:38;23.40;99.90
53053;DHT22;38934;52.690;6.184;2022-08-21T16:21:04;23.30;99.90
53053;DHT22;38934;52.690;6.184;2022-08-21T16:23:30;23.30;99.90
53053;DHT22;38934;52.690;6.184;2022-08-21T16:25:58;23.20;99.90
53053;DHT22;38934;52.690;6.184;2022-08-21T16:28:24;23.20;99.90
53053;DHT22;38934;52.690;6.184;2022-08-21T16:30:50;23.20;99.90
53053;DHT22;38934;52.690;6.184;2022-08-21T16:33:41;23.10;99.90
53053;DHT22;38934;52.690;6.184;2022-08-21T16:36:07;23.10;99.90
53053;DHT22;38934;52.690;6.184;2022-08-21T16:38:34;23.00;99.90
53053;DHT22;38934;52.690;6.184;2022-08-21T16:41:06;23.00;99.90
53053;DHT22;38934;52.690;6.184;2022-08-21T16:43:32;22.90;99.90
53053;DHT22;38934;52.690;6.184;2022-08-21T16:45:59;22.80;99.90